createdAt,value
2023-05-23T00:00:07.938Z,17.49
2023-05-23T00:02:38.332Z,17.49
2023-05-23T00:05:07.700Z,17.52
2023-05-23T00:07:43.797Z,17.53
2023-05-23T00:10:12.591Z,17.43
2023-05-23T00:12:43.194Z,17.57
2023-05-23T00:15:12.600Z,17.56
2023-05-23T00:17:41.036Z,17.60
2023-05-23T00:20:10.749Z,17.61
2023-05-23T00:22:44.946Z,17.66
2023-05-23T00:25:13.373Z,17.67
2023-05-23T00:27:41.472Z,17.71
2023-05-23T00:30:10.617Z,17.80
2023-05-23T00:32:39.291Z,17.82
2023-05-23T00:35:07.814Z,17.85
2023-05-23T00:37:35.581Z,17.85
2023-05-23T00:40:03.531Z,17.86
2023-05-23T00:42:33.344Z,17.82
2023-05-23T00:45:01.249Z,17.83
2023-05-23T00:47:32.918Z,17.85
2023-05-23T00:50:01.153Z,17.86
2023-05-23T00:52:29.216Z,17.85
2023-05-23T00:54:58.028Z,17.86
2023-05-23T00:57:26.269Z,17.87
2023-05-23T00:59:55.882Z,17.80
2023-05-23T01:02:25.520Z,17.77
2023-05-23T01:04:54.984Z,17.73
2023-05-23T01:07:23.633Z,17.73
2023-05-23T01:09:52.067Z,17.63
2023-05-23T01:12:28.391Z,17.61
2023-05-23T01:15:05.341Z,17.57
2023-05-23T01:17:42.501Z,17.60
2023-05-23T01:20:19.570Z,17.59
2023-05-23T01:23:02.480Z,17.68
2023-05-23T01:26:04.538Z,17.64
2023-05-23T01:28:39.971Z,17.70
2023-05-23T01:31:08.890Z,17.76
2023-05-23T01:33:38.725Z,17.77
2023-05-23T01:36:06.492Z,17.77
2023-05-23T01:38:34.474Z,17.78
2023-05-23T01:41:02.782Z,17.81
2023-05-23T01:43:31.558Z,17.79
2023-05-23T01:46:00.924Z,17.82
2023-05-23T01:48:32.757Z,17.86
2023-05-23T01:51:00.833Z,17.84
2023-05-23T01:53:29.532Z,17.86
2023-05-23T01:55:57.606Z,17.86
2023-05-23T01:58:25.149Z,17.79
2023-05-23T02:00:53.149Z,17.77
2023-05-23T02:03:21.727Z,17.80
2023-05-23T02:05:49.795Z,17.80
2023-05-23T02:08:19.118Z,17.84
2023-05-23T02:10:47.099Z,17.86
2023-05-23T02:13:15.160Z,17.88
2023-05-23T02:15:43.183Z,17.91
2023-05-23T02:18:11.125Z,17.92
2023-05-23T02:20:41.375Z,17.94
2023-05-23T02:23:10.090Z,17.98
2023-05-23T02:25:38.113Z,17.99
2023-05-23T02:28:06.146Z,18.00
2023-05-23T02:30:34.142Z,17.97
2023-05-23T02:33:06.014Z,17.99
2023-05-23T02:35:34.904Z,17.94
2023-05-23T02:38:03.550Z,18.00
2023-05-23T02:40:31.937Z,18.02
2023-05-23T02:42:59.894Z,18.03
2023-05-23T02:45:27.845Z,17.99
2023-05-23T02:47:55.892Z,17.84
2023-05-23T02:50:24.222Z,17.68
2023-05-23T02:52:52.081Z,17.58
2023-05-23T02:55:20.104Z,17.57
2023-05-23T02:57:52.198Z,17.57
2023-05-23T03:00:23.071Z,17.59
2023-05-23T03:02:51.673Z,17.64
2023-05-23T03:05:20.072Z,17.70
2023-05-23T03:07:48.338Z,17.78
2023-05-23T03:10:16.590Z,17.79
2023-05-23T03:12:44.943Z,17.74
2023-05-23T03:15:13.075Z,17.65
2023-05-23T03:17:41.503Z,17.50
2023-05-23T03:20:10.353Z,17.37
2023-05-23T03:22:38.352Z,17.25
2023-05-23T03:25:07.018Z,17.23
2023-05-23T03:27:34.989Z,17.21
2023-05-23T03:30:04.812Z,17.12
2023-05-23T03:32:33.029Z,17.06
2023-05-23T03:35:00.997Z,16.96
2023-05-23T03:37:29.310Z,16.99
2023-05-23T03:39:57.794Z,17.09
2023-05-23T03:42:25.547Z,17.16
2023-05-23T03:44:53.306Z,17.16
2023-05-23T03:47:25.175Z,17.31
2023-05-23T03:49:53.309Z,17.42
2023-05-23T03:52:24.506Z,17.69
2023-05-23T03:54:52.520Z,17.87
2023-05-23T03:57:20.489Z,18.01
2023-05-23T03:59:48.474Z,18.16
2023-05-23T04:02:18.491Z,18.35
2023-05-23T04:04:47.367Z,18.60
2023-05-23T04:07:16.180Z,18.69
2023-05-23T04:09:44.358Z,18.74
2023-05-23T04:12:12.440Z,18.92
2023-05-23T04:14:41.477Z,19.52
2023-05-23T04:17:09.481Z,19.83
2023-05-23T04:19:37.202Z,19.89
2023-05-23T04:22:06.082Z,19.60
2023-05-23T04:24:34.175Z,19.37
2023-05-23T04:27:02.337Z,19.21
2023-05-23T04:29:32.156Z,19.21
2023-05-23T04:32:00.219Z,19.08
2023-05-23T04:34:29.307Z,18.96
2023-05-23T04:36:57.683Z,18.97
2023-05-23T04:39:26.445Z,18.97
2023-05-23T04:41:54.717Z,18.93
2023-05-23T04:44:23.716Z,18.94
2023-05-23T04:46:51.582Z,19.12
2023-05-23T04:49:23.111Z,19.11
2023-05-23T04:51:51.583Z,18.99
2023-05-23T04:54:20.059Z,18.87
2023-05-23T04:56:48.037Z,18.60
2023-05-23T04:59:18.319Z,18.31
2023-05-23T05:01:46.358Z,18.22
2023-05-23T05:04:34.653Z,18.19
2023-05-23T05:07:05.379Z,18.32
2023-05-23T05:09:33.775Z,18.44
2023-05-23T05:12:01.944Z,18.44
2023-05-23T05:14:30.396Z,18.33
2023-05-23T05:16:58.536Z,18.47
2023-05-23T05:19:26.918Z,18.59
2023-05-23T05:21:55.221Z,18.61
2023-05-23T05:24:23.411Z,18.63
2023-05-23T05:26:51.115Z,18.63
2023-05-23T05:29:19.257Z,18.54
2023-05-23T05:31:47.845Z,18.53
2023-05-23T05:34:18.828Z,18.47
2023-05-23T05:36:48.458Z,18.53
2023-05-23T05:39:18.860Z,18.55
2023-05-23T05:41:48.567Z,18.55
2023-05-23T05:44:21.416Z,18.58
2023-05-23T05:46:54.582Z,18.64
2023-05-23T05:49:27.671Z,18.63
2023-05-23T05:51:58.851Z,18.67
2023-05-23T05:54:26.748Z,18.76
2023-05-23T05:56:55.876Z,18.81
2023-05-23T05:59:27.279Z,18.94
2023-05-23T06:01:55.358Z,18.94
2023-05-23T06:04:23.231Z,19.01
2023-05-23T06:06:51.344Z,19.03
2023-05-23T06:09:19.241Z,19.10
2023-05-23T06:11:47.510Z,19.10
2023-05-23T06:14:15.069Z,19.00
2023-05-23T06:16:46.476Z,18.89
2023-05-23T06:19:14.468Z,18.68
2023-05-23T06:21:42.530Z,18.52
2023-05-23T06:24:10.758Z,18.51
2023-05-23T06:26:39.623Z,18.55
2023-05-23T06:29:11.204Z,18.66
2023-05-23T06:31:39.867Z,18.80
2023-05-23T06:34:07.778Z,18.87
2023-05-23T06:36:36.383Z,18.94
2023-05-23T06:39:05.059Z,18.95
2023-05-23T06:41:33.181Z,18.91
2023-05-23T06:44:01.651Z,18.97
2023-05-23T06:46:29.930Z,19.14
2023-05-23T06:49:13.733Z,19.14
2023-05-23T06:51:42.983Z,19.23
2023-05-23T06:54:12.118Z,19.28
2023-05-23T06:56:40.609Z,19.40
2023-05-23T06:59:09.068Z,19.43
2023-05-23T07:01:37.745Z,19.49
2023-05-23T07:04:05.953Z,19.58
2023-05-23T07:06:36.876Z,19.63
2023-05-23T07:09:05.483Z,19.59
2023-05-23T07:11:33.516Z,19.60
2023-05-23T07:14:01.730Z,19.44
2023-05-23T07:16:30.167Z,19.22
2023-05-23T07:18:57.694Z,19.25
2023-05-23T07:21:25.639Z,19.32
2023-05-23T07:23:53.624Z,19.20
2023-05-23T07:26:21.857Z,19.07
2023-05-23T07:28:49.713Z,19.22
2023-05-23T07:31:18.070Z,19.50
2023-05-23T07:33:46.115Z,19.78
2023-05-23T07:36:14.230Z,19.99
2023-05-23T07:38:42.564Z,19.96
2023-05-23T07:41:12.366Z,19.86
2023-05-23T07:43:41.233Z,19.93
2023-05-23T07:46:11.401Z,20.12
2023-05-23T07:48:39.419Z,20.19
2023-05-23T07:51:07.436Z,20.24
2023-05-23T07:53:40.403Z,20.11
2023-05-23T07:56:08.457Z,20.04
2023-05-23T07:58:37.387Z,20.00
2023-05-23T08:01:05.908Z,19.81
2023-05-23T08:03:33.898Z,19.81
2023-05-23T08:06:02.072Z,19.73
2023-05-23T08:08:30.284Z,19.63
2023-05-23T08:10:58.591Z,19.71
2023-05-23T08:13:27.017Z,19.68
2023-05-23T08:15:57.152Z,19.85
2023-05-23T08:18:25.283Z,19.89
2023-05-23T08:20:54.540Z,20.08
2023-05-23T08:23:22.919Z,20.35
2023-05-23T08:25:51.171Z,20.58
2023-05-23T08:28:19.253Z,20.83
2023-05-23T08:30:48.177Z,20.97
2023-05-23T08:33:16.449Z,20.80
2023-05-23T08:35:45.636Z,20.70
2023-05-23T08:38:13.884Z,20.58
2023-05-23T08:40:44.614Z,20.41
2023-05-23T08:43:12.830Z,20.28
2023-05-23T08:45:45.012Z,20.22
2023-05-23T08:48:14.418Z,20.06
2023-05-23T08:50:44.116Z,19.84
2023-05-23T08:53:20.675Z,19.99
2023-05-23T08:55:49.151Z,20.09
2023-05-23T08:58:17.936Z,20.15
2023-05-23T09:00:46.864Z,19.76
2023-05-23T09:03:14.990Z,19.67
2023-05-23T09:08:28.430Z,19.40
2023-05-23T09:10:56.963Z,19.40
2023-05-23T09:13:26.288Z,19.33
2023-05-23T09:16:02.801Z,19.25
2023-05-23T09:18:35.490Z,19.11
2023-05-23T09:21:06.180Z,19.10
2023-05-23T09:23:37.315Z,19.26
2023-05-23T09:26:08.126Z,19.48
2023-05-23T09:28:38.257Z,19.81
2023-05-23T09:31:07.938Z,20.02
2023-05-23T09:33:41.167Z,20.12
2023-05-23T09:36:09.553Z,20.22
2023-05-23T09:38:56.083Z,20.37
2023-05-23T09:41:25.321Z,20.53
2023-05-23T09:43:54.470Z,20.58
2023-05-23T09:46:22.967Z,20.72
2023-05-23T09:48:54.126Z,20.88
2023-05-23T09:51:23.540Z,21.10
2023-05-23T09:53:51.401Z,21.46
2023-05-23T09:56:24.018Z,21.94
2023-05-23T09:58:51.964Z,22.56
2023-05-23T10:01:20.263Z,23.13
2023-05-23T10:03:57.230Z,23.52
2023-05-23T10:06:32.452Z,23.77
2023-05-23T10:09:06.791Z,23.52
2023-05-23T10:12:00.227Z,23.48
2023-05-23T10:14:30.302Z,23.43
2023-05-23T10:17:10.691Z,23.58
2023-05-23T10:19:47.168Z,23.43
2023-05-23T10:22:18.158Z,23.55
2023-05-23T10:24:47.079Z,23.46
2023-05-23T10:27:15.278Z,23.88
2023-05-23T10:29:55.224Z,24.09
2023-05-23T10:32:27.430Z,23.75
2023-05-23T10:35:13.973Z,23.87
2023-05-23T10:38:05.397Z,23.93
2023-05-23T10:40:53.518Z,24.10
2023-05-23T10:43:32.057Z,23.72
2023-05-23T10:46:00.074Z,23.59
2023-05-23T10:48:29.819Z,23.60
2023-05-23T10:51:09.183Z,23.42
2023-05-23T10:53:39.375Z,23.18
2023-05-23T10:56:12.671Z,23.05
2023-05-23T10:58:40.548Z,22.87
2023-05-23T11:01:10.421Z,22.85
2023-05-23T11:04:05.574Z,23.35
2023-05-23T11:06:41.430Z,23.97
2023-05-23T11:09:15.020Z,24.46
2023-05-23T11:11:49.536Z,24.19
2023-05-23T11:14:17.563Z,24.15
2023-05-23T11:16:49.343Z,23.91
2023-05-23T11:19:20.698Z,24.13
2023-05-23T11:22:06.505Z,24.71
2023-05-23T11:24:54.588Z,24.87
2023-05-23T11:27:37.140Z,24.75
2023-05-23T11:30:14.872Z,24.86
2023-05-23T11:32:51.146Z,24.86
2023-05-23T11:35:20.296Z,25.00
2023-05-23T11:37:48.369Z,24.61
2023-05-23T11:40:39.915Z,24.50
2023-05-23T11:43:16.979Z,24.52
2023-05-23T11:45:47.236Z,24.61
2023-05-23T11:48:17.164Z,24.79
2023-05-23T11:50:52.753Z,24.79
2023-05-23T11:53:23.255Z,24.61
2023-05-23T11:55:54.803Z,24.45
2023-05-23T11:58:26.929Z,24.51
2023-05-23T12:01:21.625Z,24.43
2023-05-23T12:03:54.346Z,24.60
2023-05-23T12:06:26.968Z,24.61
2023-05-23T12:08:57.214Z,24.48
2023-05-23T12:11:26.548Z,24.08
2023-05-23T12:13:55.107Z,23.71
2023-05-23T12:16:23.425Z,23.38
2023-05-23T12:18:53.522Z,23.32
2023-05-23T12:21:21.548Z,23.27
2023-05-23T12:23:49.850Z,23.36
2023-05-23T12:26:23.450Z,23.42
2023-05-23T12:28:51.993Z,23.41
2023-05-23T12:31:22.456Z,23.47
2023-05-23T12:33:53.556Z,23.65
2023-05-23T12:36:24.846Z,23.90
2023-05-23T12:38:53.030Z,24.09
2023-05-23T12:41:22.476Z,24.19
2023-05-23T12:43:53.426Z,24.49
2023-05-23T12:46:22.654Z,24.76
2023-05-23T12:48:51.342Z,24.86
2023-05-23T12:51:19.929Z,24.99
2023-05-23T12:53:48.586Z,25.11
2023-05-23T12:56:16.607Z,24.86
2023-05-23T12:58:46.572Z,24.62
2023-05-23T13:01:15.001Z,24.62
2023-05-23T13:03:43.308Z,24.53
2023-05-23T13:06:11.174Z,24.45
2023-05-23T13:08:39.110Z,24.29
2023-05-23T13:11:07.060Z,24.21
2023-05-23T13:13:35.232Z,24.22
2023-05-23T13:16:03.224Z,24.63
2023-05-23T13:18:32.703Z,25.01
2023-05-23T13:21:00.611Z,25.23
2023-05-23T13:23:30.719Z,25.34
2023-05-23T13:25:59.408Z,25.60
2023-05-23T13:28:27.793Z,26.05
2023-05-23T13:30:55.560Z,26.18
2023-05-23T13:33:24.983Z,26.33
2023-05-23T13:35:53.394Z,26.26
2023-05-23T13:38:21.654Z,26.46
2023-05-23T13:40:52.210Z,26.54
2023-05-23T13:43:21.118Z,26.26
2023-05-23T13:45:54.766Z,26.00
2023-05-23T13:48:23.869Z,25.92
2023-05-23T13:50:51.901Z,25.77
2023-05-23T13:53:20.712Z,25.67
2023-05-23T13:55:48.794Z,25.75
2023-05-23T13:58:17.048Z,25.77
2023-05-23T14:00:45.169Z,25.88
2023-05-23T14:03:14.481Z,26.30
2023-05-23T14:05:43.003Z,26.59
2023-05-23T14:08:12.188Z,26.61
2023-05-23T14:10:41.701Z,26.77
2023-05-23T14:13:10.323Z,26.81
2023-05-23T14:15:38.773Z,27.00
2023-05-23T14:18:08.031Z,26.89
2023-05-23T14:20:36.537Z,27.41
2023-05-23T14:23:04.482Z,27.72
2023-05-23T14:25:35.702Z,27.78
2023-05-23T14:28:04.256Z,27.75
2023-05-23T14:30:34.386Z,27.13
2023-05-23T14:33:11.574Z,26.26
2023-05-23T14:35:42.512Z,25.57
2023-05-23T14:38:11.002Z,24.91
2023-05-23T14:40:39.182Z,24.50
2023-05-23T14:43:08.121Z,24.28
2023-05-23T14:45:36.502Z,24.14
2023-05-23T14:48:06.923Z,24.19
2023-05-23T14:50:35.423Z,24.51
2023-05-23T14:53:03.389Z,24.73
2023-05-23T14:55:34.402Z,24.76
2023-05-23T14:58:03.985Z,24.69
2023-05-23T15:00:32.715Z,24.32
2023-05-23T15:03:01.544Z,24.08
2023-05-23T15:05:30.262Z,23.91
2023-05-23T15:07:58.249Z,23.75
2023-05-23T15:10:26.707Z,23.67
2023-05-23T15:12:54.529Z,23.65
2023-05-23T15:15:23.870Z,23.63
2023-05-23T15:17:51.970Z,23.63
2023-05-23T15:20:20.029Z,23.38
2023-05-23T15:22:50.536Z,23.02
2023-05-23T15:25:29.754Z,22.99
2023-05-23T15:28:06.897Z,22.86
2023-05-23T15:30:38.370Z,22.76
2023-05-23T15:33:07.826Z,22.58
2023-05-23T15:35:36.714Z,22.48
2023-05-23T15:38:08.480Z,22.48
2023-05-23T15:40:37.055Z,22.48
2023-05-23T15:43:06.965Z,22.51
2023-05-23T15:45:35.173Z,22.28
2023-05-23T15:48:03.165Z,22.15
2023-05-23T15:50:32.090Z,22.04
2023-05-23T15:53:00.024Z,22.02
2023-05-23T15:55:28.055Z,21.90
2023-05-23T15:57:59.238Z,21.74
2023-05-23T16:00:27.228Z,21.60
2023-05-23T16:02:55.348Z,21.48
2023-05-23T16:05:24.099Z,21.37
2023-05-23T16:07:52.417Z,21.32
2023-05-23T16:10:20.465Z,21.28
2023-05-23T16:12:48.989Z,21.27
2023-05-23T16:15:17.883Z,21.18
2023-05-23T16:17:49.140Z,21.18
2023-05-23T16:20:20.714Z,21.14
2023-05-23T16:22:48.664Z,21.13
2023-05-23T16:25:16.541Z,21.05
2023-05-23T16:27:44.578Z,20.98
2023-05-23T16:30:12.638Z,20.94
2023-05-23T16:32:42.366Z,20.89
2023-05-23T16:35:11.636Z,20.85
2023-05-23T16:37:40.170Z,20.75
2023-05-23T16:40:09.203Z,20.64
2023-05-23T16:42:37.523Z,20.61
2023-05-23T16:45:06.483Z,20.58
2023-05-23T16:47:34.949Z,20.55
2023-05-23T16:50:07.621Z,20.53
2023-05-23T16:52:36.493Z,20.43
2023-05-23T16:55:05.056Z,20.33
2023-05-23T16:57:33.321Z,20.29
2023-05-23T17:00:01.330Z,20.22
2023-05-23T17:02:29.651Z,20.11
2023-05-23T17:04:57.812Z,20.04
2023-05-23T17:07:26.771Z,20.00
2023-05-23T17:09:55.171Z,19.93
2023-05-23T17:12:23.109Z,19.89
2023-05-23T17:14:52.017Z,19.87
2023-05-23T17:17:20.111Z,19.84
2023-05-23T17:19:48.726Z,19.81
2023-05-23T17:22:16.850Z,19.74
2023-05-23T17:24:44.814Z,19.74
2023-05-23T17:27:15.668Z,19.68
2023-05-23T17:29:44.005Z,19.62
2023-05-23T17:32:12.312Z,19.55
2023-05-23T17:34:40.443Z,19.52
2023-05-23T17:37:08.702Z,19.48
2023-05-23T17:39:37.121Z,19.46
2023-05-23T17:42:04.960Z,19.46
2023-05-23T17:44:33.020Z,19.43
2023-05-23T17:47:01.004Z,19.42
2023-05-23T17:49:29.455Z,19.39
2023-05-23T17:51:58.022Z,19.39
2023-05-23T17:54:26.496Z,19.37
2023-05-23T17:56:54.898Z,19.35
2023-05-23T17:59:24.396Z,19.35
2023-05-23T18:01:52.458Z,19.30
2023-05-23T18:04:20.537Z,19.27
2023-05-23T18:06:48.425Z,19.24
2023-05-23T18:09:16.962Z,19.22
2023-05-23T18:11:45.483Z,19.18
2023-05-23T18:14:13.632Z,19.13
2023-05-23T18:16:41.998Z,19.09
2023-05-23T18:19:10.509Z,19.06
2023-05-23T18:21:38.450Z,19.06
2023-05-23T18:24:06.810Z,19.07
2023-05-23T18:26:34.922Z,19.09
2023-05-23T18:29:04.876Z,19.16
2023-05-23T18:31:32.770Z,19.18
2023-05-23T18:34:01.121Z,19.18
2023-05-23T18:36:29.358Z,19.12
2023-05-23T18:38:56.922Z,19.16
2023-05-23T18:41:28.046Z,19.19
2023-05-23T18:43:56.816Z,19.16
2023-05-23T18:46:49.391Z,19.14
2023-05-23T18:49:17.915Z,19.12
2023-05-23T18:51:48.569Z,19.12
2023-05-23T18:54:16.970Z,19.09
2023-05-23T18:56:44.840Z,19.04
2023-05-23T18:59:14.834Z,18.98
2023-05-23T19:01:44.761Z,18.92
2023-05-23T19:04:13.765Z,18.90
2023-05-23T19:06:41.986Z,18.84
2023-05-23T19:09:11.824Z,18.82
2023-05-23T19:11:41.077Z,18.76
2023-05-23T19:14:09.101Z,18.74
2023-05-23T19:16:37.951Z,18.72
2023-05-23T19:19:06.357Z,18.73
2023-05-23T19:21:35.043Z,18.70
2023-05-23T19:24:07.602Z,18.67
2023-05-23T19:26:35.864Z,18.62
2023-05-23T19:29:03.874Z,18.59
2023-05-23T19:31:32.237Z,18.55
2023-05-23T19:34:00.243Z,18.57
2023-05-23T19:36:28.087Z,18.57
2023-05-23T19:38:56.420Z,18.52
2023-05-23T19:41:24.620Z,18.54
2023-05-23T19:43:53.135Z,18.54
2023-05-23T19:46:21.815Z,18.54
2023-05-23T19:48:49.950Z,18.51
2023-05-23T19:51:17.782Z,18.50
2023-05-23T19:53:45.820Z,18.47
2023-05-23T19:56:15.327Z,18.52
2023-05-23T19:58:44.366Z,18.58
2023-05-23T20:01:15.491Z,18.63
2023-05-23T20:03:43.909Z,18.61
2023-05-23T20:06:13.175Z,18.59
2023-05-23T20:08:41.511Z,18.60
2023-05-23T20:11:10.557Z,18.56
2023-05-23T20:13:42.210Z,18.56
2023-05-23T20:16:10.728Z,18.56
2023-05-23T20:18:38.798Z,18.57
2023-05-23T20:21:07.872Z,18.59
2023-05-23T20:23:36.161Z,18.57
2023-05-23T20:26:05.635Z,18.58
2023-05-23T20:28:35.396Z,18.58
2023-05-23T20:31:03.782Z,18.58
2023-05-23T20:33:32.193Z,18.57
2023-05-23T20:36:00.615Z,18.60
2023-05-23T20:38:32.565Z,18.61
2023-05-23T20:41:06.948Z,18.60
2023-05-23T20:43:37.686Z,18.62
2023-05-23T20:46:06.216Z,18.61
2023-05-23T20:48:34.452Z,18.59
2023-05-23T20:51:02.980Z,18.62
2023-05-23T20:53:31.801Z,18.64
2023-05-23T20:56:00.671Z,18.68
2023-05-23T20:58:28.298Z,18.68
2023-05-23T21:00:56.943Z,18.70
2023-05-23T21:03:25.677Z,18.72
2023-05-23T21:05:53.492Z,18.73
2023-05-23T21:08:22.771Z,18.73
2023-05-23T21:10:54.182Z,18.72
2023-05-23T21:13:23.608Z,18.70
2023-05-23T21:15:51.784Z,18.73
2023-05-23T21:18:19.501Z,18.74
2023-05-23T21:20:47.413Z,18.73
2023-05-23T21:23:15.287Z,18.76
2023-05-23T21:25:43.138Z,18.78
2023-05-23T21:28:11.170Z,18.77
2023-05-23T21:30:39.616Z,18.77
2023-05-23T21:33:08.192Z,18.79
2023-05-23T21:35:38.155Z,18.76
2023-05-23T21:38:06.634Z,18.77
2023-05-23T21:40:34.867Z,18.79
2023-05-23T21:43:02.862Z,18.81
2023-05-23T21:45:31.306Z,18.82
2023-05-23T21:47:59.166Z,18.84
2023-05-23T21:50:27.169Z,18.86
2023-05-23T21:52:55.323Z,18.85
2023-05-23T21:55:23.470Z,18.88
2023-05-23T21:57:51.387Z,18.90
2023-05-23T22:00:20.203Z,18.93
2023-05-23T22:02:48.818Z,18.90
2023-05-23T22:05:17.586Z,18.93
2023-05-23T22:07:46.211Z,18.96
2023-05-23T22:10:13.857Z,18.96
2023-05-23T22:12:44.132Z,18.90
2023-05-23T22:15:12.694Z,18.88
2023-05-23T22:17:44.249Z,18.87
2023-05-23T22:20:14.847Z,18.92
2023-05-23T22:22:43.433Z,18.90
2023-05-23T22:25:11.663Z,18.92
2023-05-23T22:27:40.395Z,18.93
2023-05-23T22:30:09.069Z,18.93
2023-05-23T22:32:37.259Z,18.94
2023-05-23T22:35:05.811Z,18.91
2023-05-23T22:37:33.624Z,18.91
2023-05-23T22:40:01.395Z,18.91
2023-05-23T22:42:29.375Z,18.86
2023-05-23T22:44:57.513Z,18.86
2023-05-23T22:47:25.387Z,18.87
2023-05-23T22:49:56.753Z,18.87
2023-05-23T22:52:25.776Z,18.82
2023-05-23T22:54:54.021Z,18.78
2023-05-23T22:57:21.982Z,18.78
2023-05-23T22:59:49.994Z,18.79
2023-05-23T23:02:17.980Z,18.78
2023-05-23T23:04:48.595Z,18.79
2023-05-23T23:07:17.194Z,18.80
2023-05-23T23:09:45.224Z,18.82
2023-05-23T23:12:12.939Z,18.84
2023-05-23T23:14:41.644Z,18.82
2023-05-23T23:17:10.283Z,18.78
2023-05-23T23:19:39.654Z,18.77
2023-05-23T23:22:08.372Z,18.76
2023-05-23T23:24:36.341Z,18.75
2023-05-23T23:27:04.387Z,18.68
2023-05-23T23:29:32.958Z,18.65
2023-05-23T23:32:01.320Z,18.62
2023-05-23T23:34:29.768Z,18.59
2023-05-23T23:37:00.329Z,18.56
2023-05-23T23:39:28.306Z,18.58
2023-05-23T23:41:56.541Z,18.55
2023-05-23T23:44:24.529Z,18.49
2023-05-23T23:46:52.781Z,18.45
2023-05-23T23:49:22.724Z,18.43
2023-05-23T23:51:50.816Z,18.38
2023-05-23T23:54:19.951Z,18.33
2023-05-23T23:56:48.328Z,18.33
2023-05-23T23:59:16.152Z,18.29
